sensor_id;sensor_type;location;lat;lon;timestamp;P1;durP1;ratioP1;P2;durP2;ratioP2
11616;SDS011;5864;52.998;9.068;2022-09-27T00:01:47;4.03;;;3.57;;
11616;SDS011;5864;52.998;9.068;2022-09-27T00:04:14;3.77;;;3.47;;
11616;SDS011;5864;52.998;9.068;2022-09-27T00:06:42;3.63;;;3.33;;
11616;SDS011;5864;52.998;9.068;2022-09-27T00:09:09;3.90;;;3.43;;
11616;SDS011;5864;52.998;9.068;2022-09-27T00:11:39;3.60;;;3.30;;
11616;SDS011;5864;52.998;9.068;2022-09-27T00:14:08;4.53;;;3.67;;
11616;SDS011;5864;52.998;9.068;2022-09-27T00:16:38;5.27;;;3.60;;
11616;SDS011;5864;52.998;9.068;2022-09-27T00:19:07;4.73;;;3.70;;
11616;SDS011;5864;52.998;9.068;2022-09-27T00:21:38;3.43;;;3.13;;
11616;SDS011;5864;52.998;9.068;2022-09-27T00:24:08;3.47;;;3.17;;
11616;SDS011;5864;52.998;9.068;2022-09-27T00:26:39;3.53;;;3.23;;
11616;SDS011;5864;52.998;9.068;2022-09-27T00:29:08;3.80;;;3.50;;
11616;SDS011;5864;52.998;9.068;2022-09-27T00:31:36;4.17;;;3.77;;
11616;SDS011;5864;52.998;9.068;2022-09-27T00:34:04;4.07;;;3.67;;
11616;SDS011;5864;52.998;9.068;2022-09-27T00:36:33;4.33;;;3.30;;
11616;SDS011;5864;52.998;9.068;2022-09-27T00:39:00;4.13;;;3.73;;
11616;SDS011;5864;52.998;9.068;2022-09-27T00:41:29;3.63;;;3.33;;
11616;SDS011;5864;52.998;9.068;2022-09-27T00:44:00;3.47;;;3.17;;
11616;SDS011;5864;52.998;9.068;2022-09-27T00:46:30;4.10;;;3.80;;
11616;SDS011;5864;52.998;9.068;2022-09-27T00:49:03;3.80;;;3.50;;
11616;SDS011;5864;52.998;9.068;2022-09-27T00:51:33;4.30;;;3.90;;
11616;SDS011;5864;52.998;9.068;2022-09-27T00:54:04;4.50;;;4.10;;
11616;SDS011;5864;52.998;9.068;2022-09-27T00:56:33;4.80;;;4.40;;
11616;SDS011;5864;52.998;9.068;2022-09-27T00:59:05;3.80;;;3.50;;
11616;SDS011;5864;52.998;9.068;2022-09-27T01:01:38;5.50;;;4.60;;
11616;SDS011;5864;52.998;9.068;2022-09-27T01:04:06;3.87;;;3.57;;
11616;SDS011;5864;52.998;9.068;2022-09-27T01:06:35;4.43;;;4.03;;
11616;SDS011;5864;52.998;9.068;2022-09-27T01:09:03;5.27;;;4.87;;
11616;SDS011;5864;52.998;9.068;2022-09-27T01:11:34;6.10;;;5.00;;
11616;SDS011;5864;52.998;9.068;2022-09-27T01:14:13;5.20;;;4.77;;
11616;SDS011;5864;52.998;9.068;2022-09-27T01:16:56;5.83;;;5.23;;
11616;SDS011;5864;52.998;9.068;2022-09-27T01:22:33;5.20;;;4.73;;
11616;SDS011;5864;52.998;9.068;2022-09-27T01:25:12;5.60;;;5.10;;
11616;SDS011;5864;52.998;9.068;2022-09-27T01:28:07;5.23;;;4.73;;
11616;SDS011;5864;52.998;9.068;2022-09-27T01:30:45;5.67;;;5.17;;
11616;SDS011;5864;52.998;9.068;2022-09-27T01:33:19;5.47;;;4.97;;
11616;SDS011;5864;52.998;9.068;2022-09-27T01:35:59;5.60;;;5.10;;
11616;SDS011;5864;52.998;9.068;2022-09-27T01:38:34;6.17;;;5.57;;
11616;SDS011;5864;52.998;9.068;2022-09-27T01:41:11;5.90;;;5.30;;
11616;SDS011;5864;52.998;9.068;2022-09-27T01:43:53;7.13;;;6.03;;
11616;SDS011;5864;52.998;9.068;2022-09-27T01:46:26;6.30;;;5.70;;
11616;SDS011;5864;52.998;9.068;2022-09-27T01:48:59;6.77;;;6.07;;
11616;SDS011;5864;52.998;9.068;2022-09-27T01:51:34;7.43;;;6.70;;
11616;SDS011;5864;52.998;9.068;2022-09-27T01:54:06;6.97;;;6.37;;
11616;SDS011;5864;52.998;9.068;2022-09-27T01:56:38;7.70;;;6.27;;
11616;SDS011;5864;52.998;9.068;2022-09-27T01:59:10;7.30;;;6.60;;
11616;SDS011;5864;52.998;9.068;2022-09-27T02:01:42;8.57;;;7.53;;
11616;SDS011;5864;52.998;9.068;2022-09-27T02:04:13;10.23;;;8.10;;
11616;SDS011;5864;52.998;9.068;2022-09-27T02:06:45;9.33;;;8.40;;
11616;SDS011;5864;52.998;9.068;2022-09-27T02:09:18;9.47;;;8.57;;
11616;SDS011;5864;52.998;9.068;2022-09-27T02:11:49;10.37;;;9.23;;
11616;SDS011;5864;52.998;9.068;2022-09-27T02:14:21;11.50;;;9.23;;
11616;SDS011;5864;52.998;9.068;2022-09-27T02:16:55;12.20;;;9.83;;
11616;SDS011;5864;52.998;9.068;2022-09-27T02:19:32;11.33;;;10.13;;
11616;SDS011;5864;52.998;9.068;2022-09-27T02:22:10;10.23;;;9.03;;
11616;SDS011;5864;52.998;9.068;2022-09-27T02:24:44;12.13;;;8.67;;
11616;SDS011;5864;52.998;9.068;2022-09-27T02:27:17;10.70;;;9.50;;
11616;SDS011;5864;52.998;9.068;2022-09-27T02:29:49;11.00;;;9.13;;
11616;SDS011;5864;52.998;9.068;2022-09-27T02:32:25;12.33;;;9.10;;
11616;SDS011;5864;52.998;9.068;2022-09-27T02:34:53;9.60;;;8.60;;
11616;SDS011;5864;52.998;9.068;2022-09-27T02:37:23;10.53;;;8.27;;
11616;SDS011;5864;52.998;9.068;2022-09-27T02:39:50;9.27;;;7.83;;
11616;SDS011;5864;52.998;9.068;2022-09-27T02:42:18;15.37;;;8.53;;
11616;SDS011;5864;52.998;9.068;2022-09-27T02:44:45;9.60;;;7.80;;
11616;SDS011;5864;52.998;9.068;2022-09-27T02:47:18;10.10;;;8.13;;
11616;SDS011;5864;52.998;9.068;2022-09-27T02:50:11;9.47;;;7.40;;
11616;SDS011;5864;52.998;9.068;2022-09-27T02:52:58;9.43;;;6.20;;
11616;SDS011;5864;52.998;9.068;2022-09-27T02:55:38;12.30;;;7.20;;
11616;SDS011;5864;52.998;9.068;2022-09-27T02:58:15;9.20;;;5.87;;
11616;SDS011;5864;52.998;9.068;2022-09-27T03:00:53;6.30;;;5.57;;
11616;SDS011;5864;52.998;9.068;2022-09-27T03:03:29;9.87;;;6.10;;
11616;SDS011;5864;52.998;9.068;2022-09-27T03:06:02;8.33;;;5.83;;
11616;SDS011;5864;52.998;9.068;2022-09-27T03:08:31;9.13;;;5.40;;
11616;SDS011;5864;52.998;9.068;2022-09-27T03:10:58;7.90;;;5.60;;
11616;SDS011;5864;52.998;9.068;2022-09-27T03:13:26;6.00;;;4.33;;
11616;SDS011;5864;52.998;9.068;2022-09-27T03:15:54;9.20;;;5.47;;
11616;SDS011;5864;52.998;9.068;2022-09-27T03:18:21;7.90;;;5.23;;
11616;SDS011;5864;52.998;9.068;2022-09-27T03:20:52;6.63;;;4.97;;
11616;SDS011;5864;52.998;9.068;2022-09-27T03:23:19;7.23;;;5.00;;
11616;SDS011;5864;52.998;9.068;2022-09-27T03:25:47;6.27;;;5.00;;
11616;SDS011;5864;52.998;9.068;2022-09-27T03:28:15;6.77;;;4.60;;
11616;SDS011;5864;52.998;9.068;2022-09-27T03:30:43;4.57;;;4.07;;
11616;SDS011;5864;52.998;9.068;2022-09-27T03:33:11;5.27;;;4.13;;
11616;SDS011;5864;52.998;9.068;2022-09-27T03:35:40;4.67;;;3.87;;
11616;SDS011;5864;52.998;9.068;2022-09-27T03:38:10;5.40;;;3.30;;
11616;SDS011;5864;52.998;9.068;2022-09-27T03:40:37;5.67;;;3.40;;
11616;SDS011;5864;52.998;9.068;2022-09-27T03:43:05;4.07;;;2.30;;
11616;SDS011;5864;52.998;9.068;2022-09-27T03:45:32;4.47;;;2.83;;
11616;SDS011;5864;52.998;9.068;2022-09-27T03:48:00;2.80;;;2.23;;
11616;SDS011;5864;52.998;9.068;2022-09-27T03:50:28;3.67;;;2.50;;
11616;SDS011;5864;52.998;9.068;2022-09-27T03:52:56;2.23;;;2.03;;
11616;SDS011;5864;52.998;9.068;2022-09-27T03:55:25;2.63;;;2.40;;
11616;SDS011;5864;52.998;9.068;2022-09-27T03:57:53;4.57;;;2.03;;
11616;SDS011;5864;52.998;9.068;2022-09-27T04:00:20;3.00;;;1.97;;
11616;SDS011;5864;52.998;9.068;2022-09-27T04:02:49;3.50;;;2.00;;
11616;SDS011;5864;52.998;9.068;2022-09-27T04:05:16;4.13;;;1.73;;
11616;SDS011;5864;52.998;9.068;2022-09-27T04:07:45;2.10;;;1.70;;
11616;SDS011;5864;52.998;9.068;2022-09-27T04:10:14;2.03;;;1.40;;
11616;SDS011;5864;52.998;9.068;2022-09-27T04:12:43;2.17;;;1.43;;
11616;SDS011;5864;52.998;9.068;2022-09-27T04:15:11;4.27;;;1.90;;
11616;SDS011;5864;52.998;9.068;2022-09-27T04:17:39;4.97;;;2.07;;
11616;SDS011;5864;52.998;9.068;2022-09-27T04:20:08;4.73;;;1.70;;
11616;SDS011;5864;52.998;9.068;2022-09-27T04:22:37;1.83;;;1.50;;
11616;SDS011;5864;52.998;9.068;2022-09-27T04:25:06;6.17;;;1.80;;
11616;SDS011;5864;52.998;9.068;2022-09-27T04:27:35;3.63;;;1.63;;
11616;SDS011;5864;52.998;9.068;2022-09-27T04:30:04;7.23;;;2.00;;
11616;SDS011;5864;52.998;9.068;2022-09-27T04:32:33;3.37;;;2.13;;
11616;SDS011;5864;52.998;9.068;2022-09-27T04:35:00;3.40;;;1.90;;
11616;SDS011;5864;52.998;9.068;2022-09-27T04:37:45;2.43;;;2.10;;
11616;SDS011;5864;52.998;9.068;2022-09-27T04:40:13;3.17;;;2.37;;
11616;SDS011;5864;52.998;9.068;2022-09-27T04:42:41;5.00;;;2.70;;
11616;SDS011;5864;52.998;9.068;2022-09-27T04:45:10;3.53;;;2.47;;
11616;SDS011;5864;52.998;9.068;2022-09-27T04:47:41;4.57;;;2.87;;
11616;SDS011;5864;52.998;9.068;2022-09-27T04:50:08;6.73;;;2.90;;
11616;SDS011;5864;52.998;9.068;2022-09-27T04:52:36;5.23;;;3.47;;
11616;SDS011;5864;52.998;9.068;2022-09-27T04:55:05;6.63;;;3.60;;
11616;SDS011;5864;52.998;9.068;2022-09-27T04:57:34;7.20;;;3.73;;
11616;SDS011;5864;52.998;9.068;2022-09-27T05:00:02;7.73;;;3.80;;
11616;SDS011;5864;52.998;9.068;2022-09-27T05:02:31;6.57;;;4.07;;
11616;SDS011;5864;52.998;9.068;2022-09-27T05:04:58;7.33;;;3.83;;
11616;SDS011;5864;52.998;9.068;2022-09-27T05:07:26;6.77;;;4.40;;
11616;SDS011;5864;52.998;9.068;2022-09-27T05:09:54;7.23;;;4.60;;
11616;SDS011;5864;52.998;9.068;2022-09-27T05:12:22;5.47;;;4.03;;
11616;SDS011;5864;52.998;9.068;2022-09-27T05:14:51;4.93;;;4.40;;
11616;SDS011;5864;52.998;9.068;2022-09-27T05:17:19;6.07;;;4.63;;
11616;SDS011;5864;52.998;9.068;2022-09-27T05:19:48;9.10;;;4.97;;
11616;SDS011;5864;52.998;9.068;2022-09-27T05:22:16;7.27;;;4.97;;
11616;SDS011;5864;52.998;9.068;2022-09-27T05:24:44;6.90;;;5.30;;
11616;SDS011;5864;52.998;9.068;2022-09-27T05:27:13;9.47;;;4.40;;
11616;SDS011;5864;52.998;9.068;2022-09-27T05:29:43;6.03;;;4.50;;
11616;SDS011;5864;52.998;9.068;2022-09-27T05:32:10;7.43;;;4.73;;
11616;SDS011;5864;52.998;9.068;2022-09-27T05:34:40;4.43;;;3.97;;
11616;SDS011;5864;52.998;9.068;2022-09-27T05:37:15;5.63;;;3.63;;
11616;SDS011;5864;52.998;9.068;2022-09-27T05:39:43;5.70;;;4.13;;
11616;SDS011;5864;52.998;9.068;2022-09-27T05:42:10;4.43;;;3.90;;
11616;SDS011;5864;52.998;9.068;2022-09-27T05:44:40;6.73;;;3.80;;
11616;SDS011;5864;52.998;9.068;2022-09-27T05:47:11;5.33;;;3.87;;
11616;SDS011;5864;52.998;9.068;2022-09-27T05:49:39;5.03;;;3.50;;
11616;SDS011;5864;52.998;9.068;2022-09-27T05:52:07;6.23;;;3.70;;
11616;SDS011;5864;52.998;9.068;2022-09-27T05:54:36;4.83;;;3.20;;
11616;SDS011;5864;52.998;9.068;2022-09-27T05:57:04;4.33;;;3.20;;
11616;SDS011;5864;52.998;9.068;2022-09-27T05:59:33;5.97;;;2.80;;
11616;SDS011;5864;52.998;9.068;2022-09-27T06:02:00;7.60;;;3.57;;
11616;SDS011;5864;52.998;9.068;2022-09-27T06:04:28;4.10;;;3.40;;
11616;SDS011;5864;52.998;9.068;2022-09-27T06:06:55;5.53;;;2.97;;
11616;SDS011;5864;52.998;9.068;2022-09-27T06:09:23;4.43;;;3.20;;
11616;SDS011;5864;52.998;9.068;2022-09-27T06:11:54;3.27;;;2.93;;
11616;SDS011;5864;52.998;9.068;2022-09-27T06:14:21;5.40;;;2.93;;
11616;SDS011;5864;52.998;9.068;2022-09-27T06:16:49;3.63;;;3.10;;
11616;SDS011;5864;52.998;9.068;2022-09-27T06:19:19;5.87;;;3.23;;
11616;SDS011;5864;52.998;9.068;2022-09-27T06:21:48;3.83;;;2.83;;
11616;SDS011;5864;52.998;9.068;2022-09-27T06:24:16;5.40;;;3.10;;
11616;SDS011;5864;52.998;9.068;2022-09-27T06:26:43;4.30;;;2.90;;
11616;SDS011;5864;52.998;9.068;2022-09-27T06:29:12;4.63;;;2.83;;
11616;SDS011;5864;52.998;9.068;2022-09-27T06:31:40;4.27;;;3.00;;
11616;SDS011;5864;52.998;9.068;2022-09-27T06:34:07;3.73;;;2.80;;
11616;SDS011;5864;52.998;9.068;2022-09-27T06:36:35;5.50;;;3.10;;
11616;SDS011;5864;52.998;9.068;2022-09-27T06:39:02;5.60;;;2.60;;
11616;SDS011;5864;52.998;9.068;2022-09-27T06:41:30;3.23;;;2.67;;
11616;SDS011;5864;52.998;9.068;2022-09-27T06:43:58;5.67;;;2.43;;
11616;SDS011;5864;52.998;9.068;2022-09-27T06:46:27;3.83;;;2.30;;
11616;SDS011;5864;52.998;9.068;2022-09-27T06:48:54;3.33;;;2.50;;
11616;SDS011;5864;52.998;9.068;2022-09-27T06:51:22;4.17;;;2.70;;
11616;SDS011;5864;52.998;9.068;2022-09-27T06:53:49;4.23;;;2.33;;
11616;SDS011;5864;52.998;9.068;2022-09-27T06:56:17;5.93;;;2.40;;
11616;SDS011;5864;52.998;9.068;2022-09-27T06:58:44;3.97;;;2.47;;
11616;SDS011;5864;52.998;9.068;2022-09-27T07:01:31;3.30;;;2.73;;
11616;SDS011;5864;52.998;9.068;2022-09-27T07:03:58;3.17;;;2.50;;
11616;SDS011;5864;52.998;9.068;2022-09-27T07:06:26;3.57;;;2.77;;
11616;SDS011;5864;52.998;9.068;2022-09-27T07:08:55;5.63;;;2.50;;
11616;SDS011;5864;52.998;9.068;2022-09-27T07:11:23;4.17;;;2.47;;
11616;SDS011;5864;52.998;9.068;2022-09-27T07:13:50;4.40;;;2.23;;
11616;SDS011;5864;52.998;9.068;2022-09-27T07:16:18;2.77;;;2.17;;
11616;SDS011;5864;52.998;9.068;2022-09-27T07:18:48;2.50;;;2.07;;
11616;SDS011;5864;52.998;9.068;2022-09-27T07:21:16;2.83;;;1.90;;
11616;SDS011;5864;52.998;9.068;2022-09-27T07:23:43;2.37;;;2.00;;
11616;SDS011;5864;52.998;9.068;2022-09-27T07:26:11;3.20;;;2.00;;
11616;SDS011;5864;52.998;9.068;2022-09-27T07:28:38;2.63;;;2.27;;
11616;SDS011;5864;52.998;9.068;2022-09-27T07:31:07;3.97;;;2.00;;
11616;SDS011;5864;52.998;9.068;2022-09-27T07:33:34;3.33;;;2.00;;
11616;SDS011;5864;52.998;9.068;2022-09-27T07:36:07;2.83;;;1.90;;
11616;SDS011;5864;52.998;9.068;2022-09-27T07:38:35;2.37;;;1.40;;
11616;SDS011;5864;52.998;9.068;2022-09-27T07:41:06;2.20;;;1.47;;
11616;SDS011;5864;52.998;9.068;2022-09-27T07:43:34;3.93;;;1.70;;
11616;SDS011;5864;52.998;9.068;2022-09-27T07:46:01;2.73;;;1.53;;
11616;SDS011;5864;52.998;9.068;2022-09-27T07:48:29;4.50;;;1.30;;
11616;SDS011;5864;52.998;9.068;2022-09-27T07:50:57;2.47;;;1.33;;
11616;SDS011;5864;52.998;9.068;2022-09-27T07:53:26;2.47;;;1.40;;
11616;SDS011;5864;52.998;9.068;2022-09-27T07:55:53;6.67;;;1.37;;
11616;SDS011;5864;52.998;9.068;2022-09-27T07:58:21;3.50;;;1.87;;
11616;SDS011;5864;52.998;9.068;2022-09-27T08:00:49;3.80;;;1.63;;
11616;SDS011;5864;52.998;9.068;2022-09-27T08:03:16;2.57;;;1.60;;
11616;SDS011;5864;52.998;9.068;2022-09-27T08:05:44;3.67;;;1.87;;
11616;SDS011;5864;52.998;9.068;2022-09-27T08:08:13;2.93;;;1.63;;
11616;SDS011;5864;52.998;9.068;2022-09-27T08:10:42;3.27;;;1.50;;
11616;SDS011;5864;52.998;9.068;2022-09-27T08:13:12;2.60;;;1.70;;
11616;SDS011;5864;52.998;9.068;2022-09-27T08:15:39;3.93;;;1.63;;
11616;SDS011;5864;52.998;9.068;2022-09-27T08:18:07;1.77;;;1.40;;
11616;SDS011;5864;52.998;9.068;2022-09-27T08:20:35;2.83;;;1.70;;
11616;SDS011;5864;52.998;9.068;2022-09-27T08:23:02;3.20;;;1.63;;
11616;SDS011;5864;52.998;9.068;2022-09-27T08:25:30;4.60;;;2.13;;
11616;SDS011;5864;52.998;9.068;2022-09-27T08:27:59;6.00;;;2.57;;
11616;SDS011;5864;52.998;9.068;2022-09-27T08:30:29;1.50;;;1.37;;
11616;SDS011;5864;52.998;9.068;2022-09-27T08:32:58;2.60;;;1.50;;
11616;SDS011;5864;52.998;9.068;2022-09-27T08:35:28;2.07;;;1.40;;
11616;SDS011;5864;52.998;9.068;2022-09-27T08:38:00;3.03;;;1.80;;
11616;SDS011;5864;52.998;9.068;2022-09-27T08:40:33;1.47;;;1.30;;
11616;SDS011;5864;52.998;9.068;2022-09-27T08:43:12;4.97;;;2.20;;
11616;SDS011;5864;52.998;9.068;2022-09-27T08:45:51;3.83;;;1.53;;
11616;SDS011;5864;52.998;9.068;2022-09-27T08:48:27;2.57;;;1.57;;
11616;SDS011;5864;52.998;9.068;2022-09-27T08:50:55;1.83;;;1.10;;
11616;SDS011;5864;52.998;9.068;2022-09-27T08:53:25;3.03;;;1.63;;
11616;SDS011;5864;52.998;9.068;2022-09-27T08:55:56;2.27;;;1.03;;
11616;SDS011;5864;52.998;9.068;2022-09-27T08:58:29;4.33;;;1.47;;
11616;SDS011;5864;52.998;9.068;2022-09-27T09:01:01;2.10;;;1.37;;
11616;SDS011;5864;52.998;9.068;2022-09-27T09:03:31;2.13;;;1.10;;
11616;SDS011;5864;52.998;9.068;2022-09-27T09:06:06;2.63;;;1.30;;
11616;SDS011;5864;52.998;9.068;2022-09-27T09:08:44;5.57;;;1.30;;
11616;SDS011;5864;52.998;9.068;2022-09-27T09:11:24;5.67;;;1.50;;
11616;SDS011;5864;52.998;9.068;2022-09-27T09:17:23;3.23;;;1.30;;
11616;SDS011;5864;52.998;9.068;2022-09-27T09:20:09;1.20;;;1.10;;
11616;SDS011;5864;52.998;9.068;2022-09-27T09:22:51;3.20;;;1.40;;
11616;SDS011;5864;52.998;9.068;2022-09-27T09:25:32;1.60;;;1.00;;
11616;SDS011;5864;52.998;9.068;2022-09-27T09:28:15;2.97;;;1.40;;
11616;SDS011;5864;52.998;9.068;2022-09-27T09:30:57;2.70;;;1.40;;
11616;SDS011;5864;52.998;9.068;2022-09-27T09:33:33;2.10;;;1.30;;
11616;SDS011;5864;52.998;9.068;2022-09-27T09:36:05;3.23;;;1.27;;
11616;SDS011;5864;52.998;9.068;2022-09-27T09:38:41;2.37;;;1.20;;
11616;SDS011;5864;52.998;9.068;2022-09-27T09:41:15;2.57;;;1.00;;
11616;SDS011;5864;52.998;9.068;2022-09-27T09:43:49;2.83;;;1.00;;
11616;SDS011;5864;52.998;9.068;2022-09-27T09:46:23;1.20;;;1.00;;
11616;SDS011;5864;52.998;9.068;2022-09-27T09:48:58;2.63;;;1.20;;
11616;SDS011;5864;52.998;9.068;2022-09-27T09:51:33;2.03;;;1.17;;
11616;SDS011;5864;52.998;9.068;2022-09-27T09:54:06;2.37;;;1.60;;
11616;SDS011;5864;52.998;9.068;2022-09-27T09:56:40;4.53;;;1.50;;
11616;SDS011;5864;52.998;9.068;2022-09-27T09:59:13;1.57;;;1.40;;
11616;SDS011;5864;52.998;9.068;2022-09-27T10:01:46;3.47;;;1.80;;
11616;SDS011;5864;52.998;9.068;2022-09-27T10:04:14;2.57;;;1.80;;
11616;SDS011;5864;52.998;9.068;2022-09-27T10:06:45;3.00;;;1.90;;
11616;SDS011;5864;52.998;9.068;2022-09-27T10:09:14;3.60;;;2.00;;
11616;SDS011;5864;52.998;9.068;2022-09-27T10:11:43;2.50;;;2.20;;
11616;SDS011;5864;52.998;9.068;2022-09-27T10:14:13;2.30;;;2.10;;
11616;SDS011;5864;52.998;9.068;2022-09-27T10:16:43;8.87;;;2.40;;
11616;SDS011;5864;52.998;9.068;2022-09-27T10:19:14;3.87;;;2.67;;
11616;SDS011;5864;52.998;9.068;2022-09-27T10:21:47;2.63;;;2.40;;
11616;SDS011;5864;52.998;9.068;2022-09-27T10:24:16;5.30;;;3.00;;
11616;SDS011;5864;52.998;9.068;2022-09-27T10:26:45;5.87;;;2.73;;
11616;SDS011;5864;52.998;9.068;2022-09-27T10:29:16;2.60;;;2.40;;
11616;SDS011;5864;52.998;9.068;2022-09-27T10:31:50;3.47;;;2.67;;
11616;SDS011;5864;52.998;9.068;2022-09-27T10:34:26;5.83;;;2.53;;
11616;SDS011;5864;52.998;9.068;2022-09-27T10:37:09;2.80;;;2.30;;
11616;SDS011;5864;52.998;9.068;2022-09-27T10:39:45;2.37;;;2.17;;
11616;SDS011;5864;52.998;9.068;2022-09-27T10:42:20;5.33;;;2.30;;
11616;SDS011;5864;52.998;9.068;2022-09-27T10:44:49;3.63;;;2.10;;
11616;SDS011;5864;52.998;9.068;2022-09-27T10:47:18;3.93;;;2.27;;
11616;SDS011;5864;52.998;9.068;2022-09-27T10:49:50;4.07;;;2.43;;
11616;SDS011;5864;52.998;9.068;2022-09-27T10:52:18;3.63;;;2.40;;
11616;SDS011;5864;52.998;9.068;2022-09-27T10:54:52;2.53;;;2.27;;
11616;SDS011;5864;52.998;9.068;2022-09-27T10:57:21;3.50;;;2.27;;
11616;SDS011;5864;52.998;9.068;2022-09-27T10:59:52;2.80;;;2.20;;
11616;SDS011;5864;52.998;9.068;2022-09-27T11:02:23;2.30;;;2.10;;
11616;SDS011;5864;52.998;9.068;2022-09-27T11:05:07;3.13;;;2.10;;
11616;SDS011;5864;52.998;9.068;2022-09-27T11:07:47;3.70;;;2.37;;
11616;SDS011;5864;52.998;9.068;2022-09-27T11:10:21;3.57;;;2.57;;
11616;SDS011;5864;52.998;9.068;2022-09-27T11:13:04;2.33;;;2.13;;
11616;SDS011;5864;52.998;9.068;2022-09-27T11:15:35;2.53;;;2.10;;
11616;SDS011;5864;52.998;9.068;2022-09-27T11:18:16;2.63;;;2.20;;
11616;SDS011;5864;52.998;9.068;2022-09-27T11:20:55;2.97;;;2.10;;
11616;SDS011;5864;52.998;9.068;2022-09-27T11:23:38;3.53;;;2.00;;
11616;SDS011;5864;52.998;9.068;2022-09-27T11:26:27;3.43;;;2.03;;
11616;SDS011;5864;52.998;9.068;2022-09-27T11:29:05;2.80;;;1.80;;
11616;SDS011;5864;52.998;9.068;2022-09-27T11:31:45;2.50;;;1.60;;
11616;SDS011;5864;52.998;9.068;2022-09-27T11:34:34;2.23;;;1.80;;
11616;SDS011;5864;52.998;9.068;2022-09-27T11:37:12;2.23;;;1.83;;
11616;SDS011;5864;52.998;9.068;2022-09-27T11:39:50;2.37;;;2.03;;
11616;SDS011;5864;52.998;9.068;2022-09-27T11:42:48;3.17;;;2.20;;
11616;SDS011;5864;52.998;9.068;2022-09-27T11:45:37;3.23;;;2.30;;
11616;SDS011;5864;52.998;9.068;2022-09-27T11:48:17;2.77;;;1.90;;
11616;SDS011;5864;52.998;9.068;2022-09-27T11:51:00;4.30;;;1.87;;
11616;SDS011;5864;52.998;9.068;2022-09-27T11:53:45;3.73;;;2.10;;
11616;SDS011;5864;52.998;9.068;2022-09-27T11:56:28;3.77;;;1.90;;
11616;SDS011;5864;52.998;9.068;2022-09-27T12:02:26;3.47;;;2.47;;
11616;SDS011;5864;52.998;9.068;2022-09-27T12:05:24;4.30;;;3.17;;
11616;SDS011;5864;52.998;9.068;2022-09-27T12:08:04;5.30;;;2.80;;
11616;SDS011;5864;52.998;9.068;2022-09-27T12:10:46;4.73;;;3.17;;
11616;SDS011;5864;52.998;9.068;2022-09-27T12:13:15;3.17;;;2.70;;
11616;SDS011;5864;52.998;9.068;2022-09-27T12:15:48;3.63;;;2.90;;
11616;SDS011;5864;52.998;9.068;2022-09-27T12:18:19;3.33;;;2.50;;
11616;SDS011;5864;52.998;9.068;2022-09-27T12:20:53;2.97;;;2.67;;
11616;SDS011;5864;52.998;9.068;2022-09-27T12:23:24;3.70;;;2.20;;
11616;SDS011;5864;52.998;9.068;2022-09-27T12:25:57;4.07;;;2.40;;
11616;SDS011;5864;52.998;9.068;2022-09-27T12:28:31;4.73;;;2.70;;
11616;SDS011;5864;52.998;9.068;2022-09-27T12:31:08;5.47;;;2.57;;
11616;SDS011;5864;52.998;9.068;2022-09-27T12:33:43;6.10;;;3.40;;
11616;SDS011;5864;52.998;9.068;2022-09-27T12:36:15;11.67;;;4.47;;
11616;SDS011;5864;52.998;9.068;2022-09-27T12:38:46;9.93;;;4.07;;
11616;SDS011;5864;52.998;9.068;2022-09-27T12:41:21;6.90;;;2.57;;
11616;SDS011;5864;52.998;9.068;2022-09-27T12:43:50;8.77;;;3.17;;
11616;SDS011;5864;52.998;9.068;2022-09-27T12:46:20;5.70;;;3.03;;
11616;SDS011;5864;52.998;9.068;2022-09-27T12:48:58;4.50;;;3.00;;
11616;SDS011;5864;52.998;9.068;2022-09-27T12:51:32;3.03;;;2.10;;
11616;SDS011;5864;52.998;9.068;2022-09-27T12:54:09;4.10;;;2.03;;
11616;SDS011;5864;52.998;9.068;2022-09-27T12:57:12;3.20;;;1.90;;
11616;SDS011;5864;52.998;9.068;2022-09-27T12:59:53;3.40;;;1.80;;
11616;SDS011;5864;52.998;9.068;2022-09-27T13:05:31;4.53;;;1.67;;
11616;SDS011;5864;52.998;9.068;2022-09-27T13:08:23;2.83;;;1.90;;
11616;SDS011;5864;52.998;9.068;2022-09-27T13:11:12;2.57;;;1.80;;
11616;SDS011;5864;52.998;9.068;2022-09-27T13:13:46;4.80;;;2.00;;
11616;SDS011;5864;52.998;9.068;2022-09-27T13:16:14;3.97;;;2.17;;
11616;SDS011;5864;52.998;9.068;2022-09-27T13:18:52;2.73;;;2.23;;
11616;SDS011;5864;52.998;9.068;2022-09-27T13:24:28;2.70;;;1.53;;
11616;SDS011;5864;52.998;9.068;2022-09-27T13:36:20;6.27;;;2.27;;
11616;SDS011;5864;52.998;9.068;2022-09-27T13:38:58;4.60;;;2.20;;
11616;SDS011;5864;52.998;9.068;2022-09-27T13:41:33;5.77;;;2.27;;
11616;SDS011;5864;52.998;9.068;2022-09-27T13:44:11;2.87;;;1.80;;
11616;SDS011;5864;52.998;9.068;2022-09-27T13:46:44;4.57;;;2.37;;
11616;SDS011;5864;52.998;9.068;2022-09-27T13:49:17;3.17;;;2.17;;
11616;SDS011;5864;52.998;9.068;2022-09-27T13:51:48;2.97;;;1.80;;
11616;SDS011;5864;52.998;9.068;2022-09-27T13:54:38;2.97;;;2.00;;
11616;SDS011;5864;52.998;9.068;2022-09-27T14:00:10;3.53;;;1.60;;
11616;SDS011;5864;52.998;9.068;2022-09-27T14:02:41;4.37;;;1.90;;
11616;SDS011;5864;52.998;9.068;2022-09-27T14:05:19;3.13;;;1.90;;
11616;SDS011;5864;52.998;9.068;2022-09-27T14:07:49;1.93;;;1.63;;
11616;SDS011;5864;52.998;9.068;2022-09-27T14:10:18;4.67;;;3.00;;
11616;SDS011;5864;52.998;9.068;2022-09-27T14:12:49;3.23;;;1.60;;
11616;SDS011;5864;52.998;9.068;2022-09-27T14:15:22;2.50;;;1.97;;
11616;SDS011;5864;52.998;9.068;2022-09-27T14:17:51;1.73;;;1.40;;
11616;SDS011;5864;52.998;9.068;2022-09-27T14:20:33;2.70;;;1.80;;
11616;SDS011;5864;52.998;9.068;2022-09-27T14:23:03;4.63;;;2.60;;
11616;SDS011;5864;52.998;9.068;2022-09-27T14:25:31;2.20;;;1.80;;
11616;SDS011;5864;52.998;9.068;2022-09-27T14:27:58;5.03;;;1.33;;
11616;SDS011;5864;52.998;9.068;2022-09-27T14:30:28;2.17;;;1.40;;
11616;SDS011;5864;52.998;9.068;2022-09-27T14:32:56;1.83;;;1.37;;
11616;SDS011;5864;52.998;9.068;2022-09-27T14:35:28;2.27;;;2.03;;
11616;SDS011;5864;52.998;9.068;2022-09-27T14:38:15;1.90;;;1.60;;
11616;SDS011;5864;52.998;9.068;2022-09-27T14:40:53;1.97;;;1.60;;
11616;SDS011;5864;52.998;9.068;2022-09-27T14:43:24;3.87;;;2.70;;
11616;SDS011;5864;52.998;9.068;2022-09-27T14:45:56;5.47;;;3.30;;
11616;SDS011;5864;52.998;9.068;2022-09-27T14:48:26;7.50;;;4.43;;
11616;SDS011;5864;52.998;9.068;2022-09-27T14:50:55;2.00;;;1.60;;
11616;SDS011;5864;52.998;9.068;2022-09-27T14:53:27;2.03;;;1.50;;
11616;SDS011;5864;52.998;9.068;2022-09-27T14:55:56;4.57;;;2.60;;
11616;SDS011;5864;52.998;9.068;2022-09-27T14:58:25;3.10;;;2.13;;
11616;SDS011;5864;52.998;9.068;2022-09-27T15:00:55;3.23;;;2.37;;
11616;SDS011;5864;52.998;9.068;2022-09-27T15:03:25;5.23;;;3.30;;
11616;SDS011;5864;52.998;9.068;2022-09-27T15:05:56;3.27;;;2.13;;
11616;SDS011;5864;52.998;9.068;2022-09-27T15:08:25;4.40;;;2.93;;
11616;SDS011;5864;52.998;9.068;2022-09-27T15:10:58;4.70;;;2.37;;
11616;SDS011;5864;52.998;9.068;2022-09-27T15:13:25;1.40;;;1.30;;
11616;SDS011;5864;52.998;9.068;2022-09-27T15:15:56;2.27;;;1.20;;
11616;SDS011;5864;52.998;9.068;2022-09-27T15:18:31;1.07;;;0.93;;
11616;SDS011;5864;52.998;9.068;2022-09-27T15:21:07;2.33;;;1.90;;
11616;SDS011;5864;52.998;9.068;2022-09-27T15:23:37;0.90;;;0.90;;
11616;SDS011;5864;52.998;9.068;2022-09-27T15:26:07;1.00;;;1.00;;
11616;SDS011;5864;52.998;9.068;2022-09-27T15:28:43;0.97;;;0.90;;
11616;SDS011;5864;52.998;9.068;2022-09-27T15:31:14;1.43;;;1.07;;
11616;SDS011;5864;52.998;9.068;2022-09-27T15:33:44;1.67;;;1.40;;
11616;SDS011;5864;52.998;9.068;2022-09-27T15:39:20;0.80;;;0.80;;
11616;SDS011;5864;52.998;9.068;2022-09-27T15:42:00;1.30;;;1.20;;
11616;SDS011;5864;52.998;9.068;2022-09-27T15:44:35;1.17;;;0.90;;
11616;SDS011;5864;52.998;9.068;2022-09-27T15:47:08;1.10;;;1.00;;
11616;SDS011;5864;52.998;9.068;2022-09-27T15:52:59;2.10;;;1.07;;
11616;SDS011;5864;52.998;9.068;2022-09-27T15:55:27;1.10;;;1.00;;
11616;SDS011;5864;52.998;9.068;2022-09-27T15:57:58;1.33;;;0.97;;
11616;SDS011;5864;52.998;9.068;2022-09-27T16:00:28;1.80;;;1.30;;
11616;SDS011;5864;52.998;9.068;2022-09-27T16:02:58;1.73;;;1.37;;
11616;SDS011;5864;52.998;9.068;2022-09-27T16:05:25;1.60;;;1.17;;